createdAt,value
2018-06-18T00:00:27.890Z,12.80
2018-06-18T00:02:56.847Z,10.90
2018-06-18T00:05:25.723Z,8.93
2018-06-18T00:07:54.487Z,9.77
2018-06-18T00:10:23.335Z,10.10
2018-06-18T00:12:52.128Z,10.80
2018-06-18T00:15:20.872Z,10.43
2018-06-18T00:17:49.663Z,7.97
2018-06-18T00:20:18.486Z,11.23
2018-06-18T00:22:47.249Z,9.40
2018-06-18T00:25:16.068Z,8.40
2018-06-18T00:27:44.846Z,9.50
2018-06-18T00:30:13.625Z,9.53
2018-06-18T00:32:42.460Z,8.43
2018-06-18T00:35:11.400Z,8.33
2018-06-18T00:37:40.235Z,10.93
2018-06-18T00:40:09.045Z,14.93
2018-06-18T00:42:38.000Z,10.10
2018-06-18T00:45:06.923Z,7.37
2018-06-18T00:47:35.685Z,9.93
2018-06-18T00:50:04.730Z,10.23
2018-06-18T00:52:33.491Z,14.67
2018-06-18T00:55:02.290Z,9.20
2018-06-18T00:57:31.090Z,8.07
2018-06-18T00:59:59.933Z,9.97
2018-06-18T01:02:28.743Z,9.03
2018-06-18T01:04:57.566Z,10.53
2018-06-18T01:07:26.365Z,9.97
2018-06-18T01:09:55.145Z,12.73
2018-06-18T01:12:23.975Z,15.80
2018-06-18T01:14:52.712Z,12.40
2018-06-18T01:17:21.619Z,13.30
2018-06-18T01:19:50.581Z,11.07
2018-06-18T01:22:19.378Z,10.27
2018-06-18T01:25:06.255Z,15.27
2018-06-18T01:27:35.140Z,12.87
2018-06-18T01:30:03.985Z,14.63
2018-06-18T01:32:33.164Z,16.20
2018-06-18T01:35:01.947Z,13.37
2018-06-18T01:37:30.730Z,14.37
2018-06-18T01:39:59.857Z,20.33
2018-06-18T01:42:28.641Z,27.87
2018-06-18T01:44:57.416Z,32.80
2018-06-18T01:47:26.372Z,36.63
2018-06-18T01:49:55.188Z,44.40
2018-06-18T01:52:23.950Z,40.07
2018-06-18T01:54:52.885Z,42.37
2018-06-18T01:57:21.642Z,45.13
2018-06-18T01:59:50.490Z,47.00
2018-06-18T02:02:19.305Z,52.10
2018-06-18T02:04:48.069Z,43.53
2018-06-18T02:07:16.832Z,44.80
2018-06-18T02:09:45.764Z,44.30
2018-06-18T02:12:14.547Z,41.30
2018-06-18T02:14:43.335Z,37.23
2018-06-18T02:17:12.275Z,27.93
2018-06-18T02:19:41.056Z,19.30
2018-06-18T02:22:09.873Z,20.70
2018-06-18T02:24:38.729Z,16.80
2018-06-18T02:27:12.467Z,25.90
2018-06-18T02:29:46.514Z,17.47
2018-06-18T02:32:20.266Z,19.50
2018-06-18T02:34:54.477Z,18.87
2018-06-18T02:37:28.280Z,21.47
2018-06-18T02:40:02.180Z,21.67
2018-06-18T02:42:31.111Z,26.23
2018-06-18T02:44:59.965Z,23.57
2018-06-18T02:47:28.777Z,25.33
2018-06-18T02:49:57.535Z,19.83
2018-06-18T02:52:26.300Z,24.53
2018-06-18T02:54:55.608Z,26.93
2018-06-18T02:57:24.361Z,24.60
2018-06-18T02:59:53.178Z,25.30
2018-06-18T03:02:22.421Z,29.87
2018-06-18T03:04:51.240Z,27.53
2018-06-18T03:07:20.018Z,26.20
2018-06-18T03:09:48.837Z,26.47
2018-06-18T03:12:17.594Z,23.03
2018-06-18T03:14:46.388Z,30.50
2018-06-18T03:17:15.219Z,25.90
2018-06-18T03:19:49.117Z,26.53
2018-06-18T03:22:23.175Z,33.20
2018-06-18T03:24:57.216Z,28.27
2018-06-18T03:27:31.259Z,28.00
2018-06-18T03:30:00.048Z,25.87
2018-06-18T03:32:28.868Z,22.90
2018-06-18T03:34:57.689Z,26.13
2018-06-18T03:37:27.160Z,21.73
2018-06-18T03:39:56.078Z,22.77
2018-06-18T03:42:24.955Z,22.53
2018-06-18T03:45:01.824Z,16.17
2018-06-18T03:47:31.338Z,21.13
2018-06-18T03:50:00.154Z,26.37
2018-06-18T03:52:28.927Z,23.10
2018-06-18T03:55:00.036Z,20.83
2018-06-18T03:57:28.813Z,25.57
2018-06-18T03:59:57.618Z,23.63
2018-06-18T04:02:37.502Z,25.70
2018-06-18T04:05:11.631Z,27.97
2018-06-18T04:07:45.539Z,31.57
2018-06-18T04:10:19.883Z,31.73
2018-06-18T04:12:48.750Z,27.77
2018-06-18T04:15:17.526Z,28.90
2018-06-18T04:17:46.408Z,28.23
2018-06-18T04:20:15.226Z,38.27
2018-06-18T04:22:44.005Z,36.17
2018-06-18T04:25:12.966Z,24.20
2018-06-18T04:27:41.854Z,27.13
2018-06-18T04:30:10.619Z,24.53
2018-06-18T04:32:39.399Z,31.13
2018-06-18T04:35:09.539Z,33.63
2018-06-18T04:37:38.343Z,30.20
2018-06-18T04:40:08.004Z,33.13
2018-06-18T04:42:41.863Z,32.27
2018-06-18T04:45:15.826Z,33.03
2018-06-18T04:47:49.779Z,27.57
2018-06-18T04:50:23.606Z,31.30
2018-06-18T04:52:52.421Z,28.27
2018-06-18T04:55:21.176Z,23.23
2018-06-18T04:57:49.980Z,22.27
2018-06-18T05:01:32.518Z,22.80
2018-06-18T05:04:01.354Z,21.87
2018-06-18T05:06:31.090Z,20.27
2018-06-18T05:09:09.779Z,22.93
2018-06-18T05:11:38.639Z,23.53
2018-06-18T05:14:07.735Z,20.70
2018-06-18T05:16:36.834Z,15.27
2018-06-18T05:19:05.848Z,16.20
2018-06-18T05:21:34.777Z,15.67
2018-06-18T05:24:04.078Z,21.73
2018-06-18T05:26:33.787Z,18.53
2018-06-18T05:29:02.635Z,18.70
2018-06-18T05:31:31.497Z,24.50
2018-06-18T05:34:00.295Z,19.47
2018-06-18T05:36:29.088Z,17.33
2018-06-18T05:38:57.911Z,21.23
2018-06-18T05:41:26.689Z,16.60
2018-06-18T05:43:55.447Z,22.87
2018-06-18T05:46:24.485Z,20.33
2018-06-18T05:48:53.328Z,17.57
2018-06-18T05:51:22.123Z,20.97
2018-06-18T05:53:51.026Z,18.20
2018-06-18T05:56:19.834Z,17.60
2018-06-18T05:58:48.627Z,23.47
2018-06-18T06:01:17.462Z,19.03
2018-06-18T06:03:46.250Z,19.00
2018-06-18T06:06:15.252Z,19.30
2018-06-18T06:08:44.053Z,18.40
2018-06-18T06:11:12.987Z,19.43
2018-06-18T06:13:41.798Z,19.27
2018-06-18T06:16:10.616Z,22.30
2018-06-18T06:18:39.414Z,20.43
2018-06-18T06:21:10.409Z,19.17
2018-06-18T06:23:39.293Z,15.97
2018-06-18T06:26:08.068Z,17.00
2018-06-18T06:28:36.899Z,15.13
2018-06-18T06:31:05.874Z,16.17
2018-06-18T06:33:34.732Z,17.63
2018-06-18T06:36:04.155Z,15.07
2018-06-18T06:38:33.284Z,15.63
2018-06-18T06:41:02.085Z,16.00
2018-06-18T06:43:30.868Z,16.70
2018-06-18T06:45:59.905Z,17.63
2018-06-18T06:48:28.712Z,14.27
2018-06-18T06:50:57.540Z,13.17
2018-06-18T06:53:26.371Z,14.60
2018-06-18T06:55:55.283Z,14.13
2018-06-18T06:58:24.088Z,16.30
2018-06-18T07:00:53.012Z,14.80
2018-06-18T07:03:21.963Z,13.90
2018-06-18T07:05:50.740Z,13.90
2018-06-18T07:08:19.715Z,13.60
2018-06-18T07:10:48.498Z,14.87
2018-06-18T07:13:17.308Z,13.70
2018-06-18T07:15:46.260Z,13.47
2018-06-18T07:18:15.072Z,16.00
2018-06-18T07:20:43.887Z,14.53
2018-06-18T07:23:12.694Z,15.37
2018-06-18T07:25:41.527Z,14.83
2018-06-18T07:28:10.289Z,13.30
2018-06-18T07:30:39.099Z,13.17
2018-06-18T07:33:07.851Z,15.53
2018-06-18T07:35:36.632Z,17.73
2018-06-18T07:38:05.545Z,12.90
2018-06-18T07:40:34.392Z,14.07
2018-06-18T07:43:03.188Z,14.00
2018-06-18T07:45:32.089Z,12.37
2018-06-18T07:48:00.892Z,15.23
2018-06-18T07:50:29.691Z,14.50
2018-06-18T07:52:58.508Z,13.00
2018-06-18T07:55:27.320Z,15.47
2018-06-18T07:57:56.097Z,12.93
2018-06-18T08:00:25.292Z,12.70
2018-06-18T08:02:54.094Z,15.70
2018-06-18T08:05:22.946Z,19.87
2018-06-18T08:07:51.757Z,13.97
2018-06-18T08:10:20.548Z,14.97
2018-06-18T08:12:49.312Z,15.70
2018-06-18T08:15:18.146Z,15.77
2018-06-18T08:17:46.993Z,13.10
2018-06-18T08:20:16.399Z,12.90
2018-06-18T08:22:46.219Z,13.00
2018-06-18T08:25:15.139Z,15.73
2018-06-18T08:27:44.055Z,17.33
2018-06-18T08:30:12.902Z,13.53
2018-06-18T08:32:41.699Z,13.67
2018-06-18T08:35:10.529Z,13.03
2018-06-18T08:37:39.393Z,15.80
2018-06-18T08:40:08.203Z,13.93
2018-06-18T08:42:37.048Z,13.40
2018-06-18T08:45:06.199Z,14.47
2018-06-18T08:47:35.067Z,11.97
2018-06-18T08:50:09.012Z,13.40
2018-06-18T08:52:42.849Z,11.93
2018-06-18T08:55:16.783Z,11.00
2018-06-18T08:57:50.688Z,14.87
2018-06-18T09:00:24.587Z,13.13
2018-06-18T09:02:58.451Z,14.57
2018-06-18T09:05:32.357Z,12.83
2018-06-18T09:08:02.184Z,15.40
2018-06-18T09:10:31.103Z,14.10
2018-06-18T09:12:59.907Z,14.77
2018-06-18T09:15:28.736Z,13.73
2018-06-18T09:17:57.521Z,10.30
2018-06-18T09:20:26.631Z,12.07
2018-06-18T09:22:55.402Z,11.00
2018-06-18T09:25:24.186Z,13.73
2018-06-18T09:27:53.039Z,12.97
2018-06-18T09:30:21.924Z,12.63
2018-06-18T09:32:50.744Z,11.27
2018-06-18T09:35:19.736Z,14.53
2018-06-18T09:37:48.544Z,10.77
2018-06-18T09:40:17.331Z,14.43
2018-06-18T09:42:46.506Z,10.23
2018-06-18T09:45:15.322Z,11.00
2018-06-18T09:47:44.115Z,10.93
2018-06-18T09:50:18.037Z,8.07
2018-06-18T09:52:53.077Z,8.97
2018-06-18T09:57:28.884Z,10.13
2018-06-18T10:00:00.830Z,12.37
2018-06-18T10:02:29.822Z,11.43
2018-06-18T10:04:59.869Z,15.37
2018-06-18T10:07:28.678Z,11.70
2018-06-18T10:09:57.692Z,11.87
2018-06-18T10:12:26.611Z,10.93
2018-06-18T10:14:55.515Z,11.37
2018-06-18T10:17:24.435Z,15.90
2018-06-18T10:19:53.226Z,11.67
2018-06-18T10:22:22.062Z,12.90
2018-06-18T10:24:50.973Z,10.50
2018-06-18T10:27:19.886Z,12.77
2018-06-18T10:29:48.699Z,10.80
2018-06-18T10:32:22.508Z,8.37
2018-06-18T10:34:56.610Z,9.80
2018-06-18T10:37:30.595Z,9.20
2018-06-18T10:40:04.447Z,9.87
2018-06-18T10:42:38.456Z,7.77
2018-06-18T10:45:07.327Z,7.53
2018-06-18T10:47:36.229Z,8.17
2018-06-18T10:50:05.072Z,9.47
2018-06-18T10:52:33.866Z,8.67
2018-06-18T10:55:02.755Z,6.13
2018-06-18T10:57:31.692Z,9.10
2018-06-18T11:00:00.533Z,7.73
2018-06-18T11:02:29.425Z,9.03
2018-06-18T11:05:02.217Z,9.63
2018-06-18T11:07:31.628Z,10.77
2018-06-18T11:10:00.509Z,9.53
2018-06-18T11:12:29.319Z,10.47
2018-06-18T11:14:58.116Z,8.30
2018-06-18T11:17:32.161Z,9.47
2018-06-18T11:20:06.133Z,8.40
2018-06-18T11:22:39.992Z,7.60
2018-06-18T11:25:13.885Z,7.37
2018-06-18T11:27:44.176Z,8.70
2018-06-18T11:30:13.067Z,8.47
2018-06-18T11:32:41.867Z,8.57
2018-06-18T11:35:10.995Z,8.90
2018-06-18T11:37:39.877Z,7.50
2018-06-18T11:40:08.647Z,9.30
2018-06-18T11:42:37.494Z,9.10
2018-06-18T11:45:06.328Z,7.80
2018-06-18T11:47:35.131Z,8.33
2018-06-18T11:50:04.089Z,7.50
2018-06-18T11:52:32.952Z,6.43
2018-06-18T11:55:01.781Z,6.20
2018-06-18T11:57:31.349Z,8.20
2018-06-18T12:00:05.105Z,7.30
2018-06-18T12:02:38.988Z,6.83
2018-06-18T12:05:12.853Z,5.93
2018-06-18T12:09:48.866Z,6.47
2018-06-18T12:12:17.665Z,7.10
2018-06-18T12:14:46.442Z,6.00
2018-06-18T12:17:15.357Z,6.33
2018-06-18T12:19:44.169Z,7.17
2018-06-18T12:22:13.058Z,6.37
2018-06-18T12:24:41.977Z,6.20
2018-06-18T12:27:13.092Z,6.33
2018-06-18T12:29:41.882Z,8.83
2018-06-18T12:32:11.031Z,9.20
2018-06-18T12:34:39.844Z,9.73
2018-06-18T12:37:08.670Z,8.13
2018-06-18T12:39:37.460Z,5.83
2018-06-18T12:42:07.461Z,7.00
2018-06-18T12:44:43.875Z,8.67
2018-06-18T12:47:17.660Z,6.23
2018-06-18T12:49:51.884Z,9.00
2018-06-18T12:52:25.733Z,6.57
2018-06-18T12:54:59.951Z,6.57
2018-06-18T12:57:28.754Z,8.10
2018-06-18T12:59:57.545Z,6.83
2018-06-18T13:02:31.268Z,8.77
2018-06-18T13:05:01.868Z,7.97
2018-06-18T13:07:30.666Z,7.50
2018-06-18T13:09:59.769Z,9.17
2018-06-18T13:12:28.789Z,8.53
2018-06-18T13:14:57.577Z,10.63
2018-06-18T13:17:26.405Z,12.07
2018-06-18T13:19:55.196Z,9.17
2018-06-18T13:22:24.091Z,11.20
2018-06-18T13:24:53.110Z,11.57
2018-06-18T13:27:26.048Z,11.50
2018-06-18T13:29:54.879Z,10.47
2018-06-18T13:32:23.715Z,10.03
2018-06-18T13:34:52.528Z,9.60
2018-06-18T13:37:26.690Z,9.07
2018-06-18T13:40:00.595Z,9.63
2018-06-18T13:42:34.604Z,13.50
2018-06-18T13:45:08.498Z,13.67
2018-06-18T13:47:42.513Z,9.63
2018-06-18T13:50:11.313Z,10.27
2018-06-18T13:52:40.177Z,10.70
2018-06-18T13:55:09.467Z,10.57
2018-06-18T13:57:38.280Z,10.17
2018-06-18T14:00:08.171Z,9.87
2018-06-18T14:02:37.168Z,10.43
2018-06-18T14:05:05.962Z,17.03
2018-06-18T14:07:34.938Z,10.47
2018-06-18T14:10:03.797Z,14.50
2018-06-18T14:12:32.583Z,10.63
2018-06-18T14:15:01.392Z,12.60
2018-06-18T14:17:30.360Z,9.40
2018-06-18T14:20:04.350Z,11.87
2018-06-18T14:22:33.408Z,13.83
2018-06-18T14:25:02.241Z,14.53
2018-06-18T14:27:31.062Z,9.67
2018-06-18T14:30:04.973Z,12.33
2018-06-18T14:32:38.840Z,12.67
2018-06-18T14:35:13.207Z,10.00
2018-06-18T14:37:47.150Z,13.20
2018-06-18T14:40:18.306Z,15.80
2018-06-18T14:42:47.047Z,16.57
